createdAt,value
2023-08-16T00:02:55.368Z,21.19
2023-08-16T00:08:17.230Z,21.24
2023-08-16T00:13:39.196Z,21.29
2023-08-16T00:19:01.201Z,21.33
2023-08-16T00:24:23.067Z,21.25
2023-08-16T00:29:44.839Z,21.34
2023-08-16T00:35:07.232Z,21.52
2023-08-16T00:40:29.018Z,21.65
2023-08-16T00:45:51.408Z,21.71
2023-08-16T00:51:14.689Z,21.72
2023-08-16T00:56:36.893Z,21.81
2023-08-16T01:01:58.854Z,21.72
2023-08-16T01:07:21.108Z,21.72
2023-08-16T01:13:03.317Z,21.60
2023-08-16T01:18:28.830Z,21.54
2023-08-16T01:24:07.422Z,21.50
2023-08-16T01:29:30.955Z,21.49
2023-08-16T01:34:52.791Z,21.43
2023-08-16T01:40:14.779Z,20.75
2023-08-16T01:45:36.737Z,20.55
2023-08-16T01:50:58.878Z,20.62
2023-08-16T01:56:21.568Z,20.74
2023-08-16T02:01:43.513Z,20.63
2023-08-16T02:07:05.397Z,20.28
2023-08-16T02:12:27.256Z,20.16
2023-08-16T02:17:49.200Z,20.17
2023-08-16T02:23:11.170Z,20.14
2023-08-16T02:28:32.927Z,20.04
2023-08-16T02:33:54.832Z,19.95
2023-08-16T02:39:18.509Z,19.87
2023-08-16T02:44:40.967Z,19.82
2023-08-16T02:50:02.910Z,19.77
2023-08-16T02:55:24.792Z,19.79
2023-08-16T03:00:51.752Z,19.98
2023-08-16T03:06:13.749Z,19.94
2023-08-16T03:11:35.572Z,19.78
2023-08-16T03:17:00.963Z,19.78
2023-08-16T03:22:22.861Z,19.88
2023-08-16T03:27:44.680Z,19.91
2023-08-16T03:33:07.454Z,19.92
2023-08-16T03:38:29.743Z,19.87
2023-08-16T03:43:51.683Z,19.62
2023-08-16T03:49:13.424Z,19.48
2023-08-16T03:54:35.272Z,19.41
2023-08-16T03:59:57.193Z,19.46
2023-08-16T04:05:21.228Z,19.59
2023-08-16T04:10:43.305Z,19.64
2023-08-16T04:16:05.385Z,19.68
2023-08-16T04:21:27.239Z,19.81
2023-08-16T04:26:51.953Z,19.91
2023-08-16T04:32:13.891Z,19.96
2023-08-16T04:37:35.711Z,19.99
2023-08-16T04:42:57.633Z,20.03
2023-08-16T04:48:19.513Z,19.95
2023-08-16T04:53:41.381Z,19.94
2023-08-16T04:59:03.379Z,19.84
2023-08-16T05:04:25.315Z,19.85
2023-08-16T05:09:47.205Z,19.84
2023-08-16T05:15:09.956Z,19.80
2023-08-16T05:20:31.734Z,19.78
2023-08-16T05:25:53.568Z,19.85
2023-08-16T05:31:16.559Z,19.99
2023-08-16T05:36:48.503Z,20.21
2023-08-16T05:42:10.412Z,20.44
2023-08-16T05:47:32.659Z,20.61
2023-08-16T05:52:54.515Z,20.92
2023-08-16T05:58:16.336Z,21.26
2023-08-16T06:03:40.048Z,21.33
2023-08-16T06:09:02.183Z,21.60
2023-08-16T06:14:24.023Z,21.84
2023-08-16T06:19:45.901Z,22.31
2023-08-16T06:25:09.419Z,22.73
2023-08-16T06:30:31.369Z,22.93
2023-08-16T06:35:53.411Z,22.26
2023-08-16T06:41:15.863Z,22.28
2023-08-16T06:46:37.891Z,22.17
2023-08-16T06:51:59.820Z,21.91
2023-08-16T06:57:22.003Z,21.76
2023-08-16T07:02:44.503Z,21.91
2023-08-16T07:08:07.365Z,22.21
2023-08-16T07:13:29.293Z,22.61
2023-08-16T07:18:53.355Z,23.07
2023-08-16T07:24:15.392Z,23.46
2023-08-16T07:29:37.210Z,23.95
2023-08-16T07:34:59.144Z,23.81
2023-08-16T07:40:21.041Z,24.22
2023-08-16T07:45:42.925Z,24.54
2023-08-16T07:51:04.914Z,24.99
2023-08-16T07:56:26.802Z,25.20
2023-08-16T08:01:48.675Z,25.51
2023-08-16T08:07:12.429Z,25.48
2023-08-16T08:12:34.462Z,25.88
2023-08-16T08:17:57.363Z,26.21
2023-08-16T08:23:19.231Z,26.55
2023-08-16T08:28:41.110Z,26.77
2023-08-16T08:34:03.002Z,27.18
2023-08-16T08:39:24.881Z,27.27
2023-08-16T08:44:46.762Z,27.38
2023-08-16T08:50:09.113Z,27.70
2023-08-16T08:55:34.181Z,28.10
2023-08-16T09:00:56.144Z,28.29
2023-08-16T09:06:18.045Z,28.91
2023-08-16T09:11:40.180Z,28.93
2023-08-16T09:17:02.007Z,29.71
2023-08-16T09:22:24.088Z,30.48
2023-08-16T09:27:46.274Z,30.90
2023-08-16T09:33:08.862Z,31.03
2023-08-16T09:44:06.920Z,31.91
2023-08-16T09:49:28.904Z,31.62
2023-08-16T09:54:55.468Z,31.81
2023-08-16T10:00:17.715Z,32.64
2023-08-16T10:11:05.452Z,32.72
2023-08-16T10:16:31.882Z,34.28
2023-08-16T10:21:55.284Z,34.15
2023-08-16T10:27:20.814Z,34.47
2023-08-16T10:32:46.032Z,34.05
2023-08-16T10:38:07.872Z,33.58
2023-08-16T10:43:35.363Z,34.33
2023-08-16T10:49:01.671Z,35.50
2023-08-16T10:54:33.703Z,36.89
2023-08-16T11:00:08.755Z,38.24
2023-08-16T11:05:35.002Z,39.46
2023-08-16T11:10:57.613Z,39.53
2023-08-16T11:16:19.746Z,40.20
2023-08-16T11:21:45.587Z,40.20
2023-08-16T11:27:07.909Z,40.47
2023-08-16T11:32:41.293Z,40.76
2023-08-16T11:38:03.267Z,38.92
2023-08-16T11:43:29.234Z,39.49
2023-08-16T11:48:51.098Z,40.38
2023-08-16T11:54:31.252Z,38.70
2023-08-16T11:59:57.024Z,39.12
2023-08-16T12:05:19.044Z,39.03
2023-08-16T12:10:41.389Z,39.32
2023-08-16T12:16:03.311Z,37.98
2023-08-16T12:21:26.086Z,38.29
2023-08-16T12:26:47.935Z,38.51
2023-08-16T12:32:09.704Z,38.96
2023-08-16T12:37:32.986Z,40.27
2023-08-16T12:43:01.800Z,40.26
2023-08-16T12:48:23.722Z,38.94
2023-08-16T12:53:46.671Z,37.24
2023-08-16T12:59:21.197Z,36.84
2023-08-16T13:10:23.897Z,35.63
2023-08-16T13:15:51.165Z,36.01
2023-08-16T13:37:45.388Z,41.71
2023-08-16T13:48:32.723Z,41.34
2023-08-16T13:53:55.485Z,41.82
2023-08-16T13:59:17.509Z,42.50
2023-08-16T14:04:41.836Z,42.51
2023-08-16T14:10:04.022Z,42.28
2023-08-16T14:15:25.860Z,41.60
2023-08-16T14:20:49.243Z,40.10
2023-08-16T14:26:13.303Z,38.29
2023-08-16T14:31:35.191Z,36.59
2023-08-16T14:36:57.111Z,35.39
2023-08-16T14:42:20.701Z,34.66
2023-08-16T14:47:42.703Z,34.15
2023-08-16T14:53:05.566Z,33.64
2023-08-16T14:58:27.377Z,33.10
2023-08-16T15:03:49.405Z,32.85
2023-08-16T15:09:11.396Z,32.50
2023-08-16T15:14:33.290Z,32.27
2023-08-16T15:19:55.872Z,31.95
2023-08-16T15:25:17.770Z,30.88
2023-08-16T15:30:39.541Z,30.55
2023-08-16T15:36:01.482Z,30.34
2023-08-16T15:41:23.279Z,30.25
2023-08-16T15:46:45.277Z,29.99
2023-08-16T15:52:07.318Z,29.59
2023-08-16T15:57:29.326Z,29.40
2023-08-16T16:02:51.303Z,29.10
2023-08-16T16:08:13.129Z,28.14
2023-08-16T16:13:34.998Z,27.49
2023-08-16T16:18:56.850Z,27.08
2023-08-16T16:24:18.707Z,26.82
2023-08-16T16:29:40.693Z,26.35
2023-08-16T16:35:03.449Z,26.07
2023-08-16T16:40:25.539Z,25.77
2023-08-16T16:45:47.464Z,25.12
2023-08-16T16:51:09.295Z,24.46
2023-08-16T16:56:31.168Z,24.14
2023-08-16T17:01:53.213Z,24.18
2023-08-16T17:07:15.490Z,23.91
2023-08-16T17:12:37.438Z,23.69
2023-08-16T17:17:59.439Z,23.71
2023-08-16T17:23:21.977Z,23.18
2023-08-16T17:28:43.842Z,22.97
2023-08-16T17:34:05.943Z,22.98
2023-08-16T17:39:27.840Z,22.77
2023-08-16T17:44:49.794Z,22.92
2023-08-16T17:50:11.677Z,23.09
2023-08-16T17:55:33.478Z,23.07
2023-08-16T18:00:56.839Z,23.47
2023-08-16T18:06:19.086Z,23.11
2023-08-16T18:11:40.892Z,23.09
2023-08-16T18:17:02.803Z,23.28
2023-08-16T18:22:24.850Z,23.09
2023-08-16T18:27:46.599Z,23.04
2023-08-16T18:33:08.462Z,22.87
2023-08-16T18:38:30.356Z,22.81
2023-08-16T18:43:52.192Z,22.73
2023-08-16T18:49:14.348Z,22.66
2023-08-16T18:54:36.175Z,22.67
2023-08-16T18:59:58.374Z,22.63
2023-08-16T19:05:20.186Z,22.72
2023-08-16T19:10:43.518Z,22.75
2023-08-16T19:16:05.467Z,22.39
2023-08-16T19:21:27.483Z,22.16
2023-08-16T19:26:49.652Z,22.06
2023-08-16T19:32:11.623Z,21.99
2023-08-16T19:37:33.574Z,21.87
2023-08-16T19:42:55.421Z,21.97
2023-08-16T19:48:17.672Z,22.05
2023-08-16T19:53:39.516Z,22.06
2023-08-16T19:59:01.393Z,21.99
2023-08-16T20:04:23.372Z,21.86
2023-08-16T20:09:45.143Z,21.79
2023-08-16T20:15:08.420Z,21.82
2023-08-16T20:20:30.310Z,21.88
2023-08-16T20:25:52.116Z,21.83
2023-08-16T20:31:14.044Z,21.70
2023-08-16T20:36:35.944Z,21.64
2023-08-16T20:41:57.787Z,21.50
2023-08-16T20:47:19.575Z,21.40
2023-08-16T20:52:43.042Z,21.13
2023-08-16T20:58:06.129Z,21.08
2023-08-16T21:03:27.951Z,20.90
2023-08-16T21:08:49.871Z,20.87
2023-08-16T21:14:11.678Z,20.93
2023-08-16T21:19:37.587Z,21.02
2023-08-16T21:24:59.571Z,20.94
2023-08-16T21:30:21.549Z,20.91
2023-08-16T21:35:43.355Z,20.78
2023-08-16T21:41:05.170Z,20.86
2023-08-16T21:46:27.295Z,21.03
2023-08-16T21:51:49.270Z,20.95
2023-08-16T21:57:11.173Z,20.98
2023-08-16T22:02:33.049Z,21.03
2023-08-16T22:07:54.913Z,21.09
2023-08-16T22:13:20.467Z,21.14
2023-08-16T22:18:42.316Z,21.14
2023-08-16T22:24:04.446Z,21.07
2023-08-16T22:29:26.317Z,20.98
2023-08-16T22:34:48.275Z,20.93
2023-08-16T22:40:10.263Z,20.47
2023-08-16T22:45:32.105Z,20.48
2023-08-16T22:50:54.363Z,20.48
2023-08-16T22:56:16.248Z,20.35
2023-08-16T23:01:38.099Z,20.26
2023-08-16T23:06:59.907Z,20.26
2023-08-16T23:12:21.673Z,20.15
2023-08-16T23:17:43.756Z,20.14
2023-08-16T23:23:06.064Z,20.22
2023-08-16T23:28:27.960Z,20.23
2023-08-16T23:33:49.821Z,20.30
2023-08-16T23:39:11.621Z,20.39
2023-08-16T23:44:33.433Z,20.32
2023-08-16T23:49:55.274Z,20.32
2023-08-16T23:55:17.181Z,20.36
